^^
Saratoga-Weather Station Historical Data
Daily Summary for June 30, 2021 Units:  English    Metric   Both
Daily Weekly Monthly Yearly Custom
  High: Low: Average:
Temperature: 77.7 °F 52.2 °F 65.5 °F
Dew Point: 60.8 °F 50.7 °F 55.9 °F
Humidity: 96% 48% 73%
Wind Speed: 14.1mph 0mph 1.7mph
Wind Gust: 14mph - -
Wind- - WSW
Pressure: 29.9 in 29.8 in -
Precipitation: 0 in    
Historical Graphs
 
 
Tabular Data for June 30, 2021
Time Temperature Dew Point Pressure Wind Wind Speed Wind Gust Humidity Rainfall Rate (Hourly) solar
00:01 58.8 °F 54.3 °F 29.9 in Calm     85% 0 in 0 W/m2
00:06 58.6 °F 54.1 °F 29.9 in Calm     85% 0 in 0 W/m2
00:11 58.6 °F 54.1 °F 29.9 in Calm     85% 0 in 0 W/m2
00:16 58.5 °F 54 °F 29.9 in Calm     85% 0 in 0 W/m2
00:21 58.5 °F 54.3 °F 29.9 in Calm     86% 0 in 0 W/m2
00:26 58.3 °F 54.1 °F 29.9 in Calm     86% 0 in 0 W/m2
00:43 57.9 °F 53.8 °F 29.9 in Calm     86% 0 in 0 W/m2
00:48 57.7 °F 54 °F 29.9 in Calm     87% 0 in 0 W/m2
00:53 57.6 °F 53.8 °F 29.9 in Calm     87% 0 in 0 W/m2
00:58 57.6 °F 53.8 °F 29.9 in Calm     87% 0 in 0 W/m2
01:03 57.4 °F 53.8 °F 29.9 in Calm     88% 0 in 0 W/m2
01:08 57.2 °F 53.6 °F 29.9 in Calm     88% 0 in 0 W/m2
01:13 57 °F 53.4 °F 29.9 in Calm     88% 0 in 0 W/m2
01:18 57 °F 53.4 °F 29.9 in Calm     88% 0 in 0 W/m2
01:23 56.8 °F 53.2 °F 29.9 in Calm     88% 0 in 0 W/m2
01:28 56.8 °F 53.6 °F 29.9 in Calm     89% 0 in 0 W/m2
01:33 56.7 °F 53.4 °F 29.9 in Calm     89% 0 in 0 W/m2
01:38 56.7 °F 53.4 °F 29.9 in Calm     89% 0 in 0 W/m2
01:43 56.7 °F 53.4 °F 29.9 in Calm     89% 0 in 0 W/m2
01:48 56.5 °F 53.2 °F 29.9 in Calm     89% 0 in 0 W/m2
01:53 56.5 °F 53.2 °F 29.9 in Calm     89% 0 in 0 W/m2
01:58 56.1 °F 52.9 °F 29.9 in SW 0.9 mph 1 mph 89% 0 in 0 W/m2
02:03 55.9 °F 52.7 °F 29.9 in Calm     89% 0 in 0 W/m2
02:08 55.9 °F 53.1 °F 29.9 in Calm     90% 0 in 0 W/m2
02:13 55.8 °F 52.9 °F 29.9 in Calm     90% 0 in 0 W/m2
02:18 55.8 °F 52.9 °F 29.9 in Calm     90% 0 in 0 W/m2
02:23 55.6 °F 52.7 °F 29.9 in Calm     90% 0 in 0 W/m2
02:28 55.6 °F 52.7 °F 29.9 in Calm     90% 0 in 0 W/m2
02:33 55.4 °F 52.5 °F 29.9 in Calm     90% 0 in 0 W/m2
02:38 55.2 °F 52.7 °F 29.9 in Calm     91% 0 in 0 W/m2
02:43 55 °F 52.5 °F 29.9 in Calm     91% 0 in 0 W/m2
02:48 55 °F 52.5 °F 29.9 in Calm     91% 0 in 0 W/m2
02:53 55 °F 52.5 °F 29.9 in Calm     91% 0 in 0 W/m2
02:58 54.9 °F 52.3 °F 29.9 in Calm     91% 0 in 0 W/m2
03:03 54.9 °F 52.3 °F 29.9 in Calm     91% 0 in 0 W/m2
03:08 54.7 °F 52.2 °F 29.9 in Calm     91% 0 in 0 W/m2
03:13 54.7 °F 52.2 °F 29.9 in Calm     91% 0 in 0 W/m2
03:18 54.3 °F 52 °F 29.9 in Calm     92% 0 in 0 W/m2
03:23 54.3 °F 52 °F 29.9 in Calm     92% 0 in 0 W/m2
03:28 54.1 °F 51.8 °F 29.9 in Calm     92% 0 in 0 W/m2
03:34 54.1 °F 51.8 °F 29.9 in Calm     92% 0 in 0 W/m2
03:39 54 °F 51.6 °F 29.9 in Calm     92% 0 in 0 W/m2
03:44 54 °F 52 °F 29.9 in Calm     93% 0 in 0 W/m2
03:49 54 °F 52 °F 29.9 in Calm     93% 0 in 0 W/m2
03:54 53.8 °F 51.8 °F 29.9 in Calm     93% 0 in 0 W/m2
03:59 53.8 °F 51.8 °F 29.9 in Calm     93% 0 in 0 W/m2
04:04 53.6 °F 51.6 °F 29.9 in Calm     93% 0 in 0 W/m2
04:09 53.4 °F 51.4 °F 29.9 in Calm     93% 0 in 0 W/m2
04:14 53.4 °F 51.4 °F 29.9 in Calm     93% 0 in 0 W/m2
04:19 53.2 °F 51.3 °F 29.9 in Calm     93% 0 in 0 W/m2
04:24 53.2 °F 51.3 °F 29.9 in Calm     93% 0 in 0 W/m2
04:29 53.1 °F 51.1 °F 29.9 in Calm     93% 0 in 0 W/m2
04:34 53.1 °F 51.1 °F 29.9 in Calm     93% 0 in 0 W/m2
04:39 53.1 °F 51.4 °F 29.9 in Calm     94% 0 in 0 W/m2
04:44 53.1 °F 51.4 °F 29.9 in Calm     94% 0 in 0 W/m2
04:49 53.1 °F 51.4 °F 29.9 in Calm     94% 0 in 0 W/m2
04:54 53.1 °F 51.4 °F 29.9 in Calm     94% 0 in 0 W/m2
04:59 53.1 °F 51.4 °F 29.9 in Calm     94% 0 in 0 W/m2
05:04 53.1 °F 51.4 °F 29.9 in Calm     94% 0 in 0 W/m2
05:09 52.9 °F 51.3 °F 29.9 in Calm     94% 0 in 0 W/m2
05:14 52.9 °F 51.3 °F 29.9 in Calm     94% 0 in 0 W/m2
05:19 52.7 °F 51.1 °F 29.9 in Calm     94% 0 in 0 W/m2
05:24 52.5 °F 50.9 °F 29.9 in Calm     94% 0 in 0 W/m2
05:29 52.5 °F 50.9 °F 29.9 in Calm     94% 0 in 0 W/m2
05:34 52.5 °F 50.9 °F 29.9 in Calm     94% 0 in 0 W/m2
05:39 52.3 °F 50.7 °F 29.9 in Calm     94% 0 in 0 W/m2
05:44 52.3 °F 50.7 °F 29.9 in Calm     94% 0 in 0 W/m2
05:49 52.3 °F 50.9 °F 29.9 in Calm     95% 0 in 0 W/m2
05:54 52.3 °F 50.9 °F 29.9 in Calm     95% 0 in 0 W/m2
05:59 52.3 °F 50.9 °F 29.9 in Calm     95% 0 in 0 W/m2
06:04 52.3 °F 50.9 °F 29.9 in Calm     95% 0 in 0 W/m2
06:24 52.3 °F 50.9 °F 29.9 in Calm     95% 0 in 12 W/m2
06:29 52.3 °F 50.9 °F 29.9 in Calm     95% 0 in 14 W/m2
06:34 52.3 °F 50.9 °F 29.9 in Calm     95% 0 in 16 W/m2
06:39 52.2 °F 50.7 °F 29.9 in Calm     95% 0 in 18 W/m2
06:44 52.3 °F 50.9 °F 29.9 in Calm     95% 0 in 18 W/m2
07:01 52.3 °F 50.9 °F 29.9 in Calm     95% 0 in 25 W/m2
07:06 52.5 °F 51.1 °F 29.9 in Calm     95% 0 in 25 W/m2
07:11 52.5 °F 51.1 °F 29.9 in Calm     95% 0 in 26 W/m2
07:16 52.5 °F 51.1 °F 29.9 in Calm     95% 0 in 26 W/m2
07:21 52.9 °F 51.8 °F 29.9 in Calm     96% 0 in 30 W/m2
07:26 53.1 °F 52 °F 29.9 in Calm     96% 0 in 32 W/m2
07:31 53.2 °F 52.2 °F 29.8 in SW 0.9 mph 1 mph 96% 0 in 33 W/m2
07:36 53.8 °F 52.7 °F 29.8 in Calm   1 mph 96% 0 in 39 W/m2
07:41 54 °F 52.9 °F 29.8 in Calm     96% 0 in 40 W/m2
07:46 54.1 °F 53.1 °F 29.9 in Calm     96% 0 in 46 W/m2
07:51 54.5 °F 53.4 °F 29.8 in Calm     96% 0 in 49 W/m2
07:56 54.9 °F 53.8 °F 29.8 in Calm     96% 0 in 53 W/m2
08:01 55 °F 53.6 °F 29.9 in Calm     95% 0 in 62 W/m2
08:06 55.6 °F 54.1 °F 29.9 in Calm     95% 0 in 49 W/m2
08:11 56.1 °F 54.7 °F 29.8 in Calm     95% 0 in 40 W/m2
08:16 57.2 °F 55.4 °F 29.8 in Calm     94% 0 in 44 W/m2
08:21 57.9 °F 55.9 °F 29.8 in Calm     93% 0 in 47 W/m2
08:26 58.8 °F 55.9 °F 29.8 in Calm   2 mph 90% 0 in 47 W/m2
08:31 59.9 °F 56.3 °F 29.8 in Calm   1 mph 88% 0 in 47 W/m2
08:36 61 °F 57 °F 29.8 in Calm   3 mph 87% 0 in 49 W/m2
08:41 61.9 °F 56.7 °F 29.8 in Calm   3 mph 83% 0 in 51 W/m2
08:46 62.1 °F 56.8 °F 29.8 in ENE 2 mph 2 mph 83% 0 in 53 W/m2
08:51 62.2 °F 57 °F 29.8 in NE 0.9 mph 2 mph 83% 0 in 56 W/m2
08:56 62.6 °F 57 °F 29.8 in ENE 0.9 mph 2 mph 82% 0 in 155 W/m2
09:01 63 °F 57 °F 29.8 in ENE 0.9 mph 3 mph 81% 0 in 323 W/m2
09:06 63.1 °F 57.2 °F 29.8 in NE 0.9 mph 2 mph 81% 0 in 364 W/m2
09:12 63.5 °F 57.6 °F 29.8 in NE 0.9 mph 2 mph 81% 0 in 380 W/m2
09:17 63.9 °F 57.9 °F 29.8 in East 0.9 mph 3 mph 81% 0 in 399 W/m2
09:22 64.2 °F 57.9 °F 29.8 in NNE 0.9 mph 2 mph 80% 0 in 413 W/m2
09:41 65.5 °F 58.8 °F 29.8 in Calm   3 mph 79% 0 in 429 W/m2
09:46 65.8 °F 58.8 °F 29.8 in ESE 2 mph 3 mph 78% 0 in 501 W/m2
09:51 66.2 °F 58.8 °F 29.8 in ENE 2 mph 3 mph 77% 0 in 564 W/m2
09:56 66.6 °F 58.8 °F 29.8 in ENE 2.9 mph 5 mph 76% 0 in 248 W/m2
10:01 66.7 °F 59 °F 29.8 in East 0.9 mph 3 mph 76% 0 in 320 W/m2
10:06 67.5 °F 59.5 °F 29.8 in ESE 0.9 mph 5 mph 76% 0 in 413 W/m2
10:11 68 °F 59.4 °F 29.8 in NNE 2 mph 4 mph 74% 0 in 550 W/m2
10:16 68.7 °F 60.1 °F 29.8 in East 2 mph 2 mph 74% 0 in 612 W/m2
10:21 69.3 °F 60.3 °F 29.8 in East 4 mph 5 mph 73% 0 in 527 W/m2
10:26 69.8 °F 60.8 °F 29.8 in NE 2 mph 3 mph 73% 0 in 645 W/m2
10:31 70.2 °F 60.6 °F 29.8 in NNW 2.9 mph 5 mph 72% 0 in 643 W/m2
10:36 70.7 °F 60.4 °F 29.8 in WNW 4 mph 6 mph 70% 0 in 684 W/m2
10:41 71.1 °F 59.5 °F 29.8 in South 0.9 mph 3 mph 67% 0 in 691 W/m2
10:46 71.8 °F 60.3 °F 29.8 in NW 2.9 mph 4 mph 67% 0 in 642 W/m2
10:51 72 °F 59.2 °F 29.8 in NW 2 mph 4 mph 64% 0 in 722 W/m2
10:56 72.1 °F 58.8 °F 29.8 in Calm   3 mph 63% 0 in 800 W/m2
11:01 72.1 °F 58.5 °F 29.8 in NW 0.9 mph 4 mph 62% 0 in 341 W/m2
11:06 72.1 °F 57.6 °F 29.8 in NNW 0.9 mph 7 mph 60% 0 in 323 W/m2
11:11 72 °F 58.3 °F 29.8 in NE 2.9 mph 6 mph 62% 0 in 679 W/m2
11:16 72.1 °F 58.5 °F 29.8 in West 6.9 mph 7 mph 62% 0 in 142 W/m2
11:21 72.3 °F 58.1 °F 29.8 in SSW 6 mph 8 mph 61% 0 in 766 W/m2
11:26 72.7 °F 58.8 °F 29.8 in ESE 0.9 mph 2 mph 62% 0 in 795 W/m2
11:31 73.4 °F 58.6 °F 29.8 in WNW 2.9 mph 5 mph 60% 0 in 868 W/m2
11:36 74.1 °F 59.4 °F 29.8 in NNW 2.9 mph 7 mph 60% 0 in 895 W/m2
11:41 74.5 °F 59.2 °F 29.8 in WNW 0.9 mph 9 mph 59% 0 in 916 W/m2
11:46 74.7 °F 58.5 °F 29.8 in Calm   4 mph 57% 0 in 916 W/m2
11:51 73.9 °F 58.6 °F 29.8 in NNW 4 mph 9 mph 59% 0 in 290 W/m2
11:56 73.6 °F 58.3 °F 29.8 in NNW 4 mph 7 mph 59% 0 in 963 W/m2
12:01 73 °F 58.3 °F 29.8 in NW 8.1 mph 11 mph 60% 0 in 216 W/m2
12:06 72.9 °F 58.6 °F 29.8 in NW 0.9 mph 3 mph 61% 0 in 865 W/m2
12:12 73.6 °F 57.9 °F 29.8 in WSW 0.9 mph 5 mph 58% 0 in 807 W/m2
12:17 73.9 °F 58.3 °F 29.8 in WNW 2 mph 5 mph 58% 0 in 812 W/m2
12:22 74.5 °F 58.3 °F 29.8 in NNW 0.9 mph 4 mph 57% 0 in 849 W/m2
12:42 75 °F 59.2 °F 29.8 in WNW 2 mph 7 mph 58% 0 in 912 W/m2
12:47 75.2 °F 58.5 °F 29.8 in WSW 4 mph 11 mph 56% 0 in 874 W/m2
12:52 75.4 °F 59 °F 29.8 in NW 14.1 mph 14 mph 57% 0 in 904 W/m2
12:57 75 °F 58.3 °F 29.8 in NW 0.9 mph 7 mph 56% 0 in 984 W/m2
13:02 75.4 °F 59 °F 29.8 in WNW 2 mph 10 mph 57% 0 in 970 W/m2
13:07 75.7 °F 59 °F 29.8 in West 6 mph 11 mph 56% 0 in 954 W/m2
13:12 75.7 °F 58.5 °F 29.8 in WNW 2.9 mph 6 mph 55% 0 in 1041 W/m2
13:17 76.3 °F 58.5 °F 29.8 in NW 2 mph 13 mph 54% 0 in 949 W/m2
13:22 75.7 °F 57.9 °F 29.8 in NW 2.9 mph 10 mph 54% 0 in 272 W/m2
13:27 75.6 °F 58.3 °F 29.8 in NE 4 mph 9 mph 55% 0 in 937 W/m2
13:32 75.7 °F 58.5 °F 29.8 in West 4 mph 10 mph 55% 0 in 942 W/m2
13:37 75.4 °F 58.1 °F 29.8 in NW 4 mph 5 mph 55% 0 in 962 W/m2
13:42 75.6 °F 58.3 °F 29.8 in WNW 2.9 mph 9 mph 55% 0 in 1114 W/m2
13:47 75.7 °F 58.5 °F 29.8 in NNW 2 mph 7 mph 55% 0 in 1076 W/m2
13:52 75.9 °F 57.6 °F 29.8 in ENE 0.9 mph 9 mph 53% 0 in 984 W/m2
13:57 75.7 °F 59 °F 29.8 in NNW 4 mph 8 mph 56% 0 in 854 W/m2
14:02 75.9 °F 58.6 °F 29.8 in WNW 2.9 mph 9 mph 55% 0 in 933 W/m2
14:07 75.7 °F 58.5 °F 29.8 in West 2 mph 9 mph 55% 0 in 232 W/m2
14:12 75.9 °F 57.6 °F 29.8 in ESE 2 mph 10 mph 53% 0 in 946 W/m2
14:17 76.3 °F 58.5 °F 29.8 in WSW 0.9 mph 6 mph 54% 0 in 928 W/m2
14:22 76.5 °F 58.6 °F 29.8 in East 8.9 mph 10 mph 54% 0 in 946 W/m2
14:27 76.8 °F 59.9 °F 29.8 in WNW 2.9 mph 3 mph 56% 0 in 891 W/m2
14:32 76.8 °F 59 °F 29.8 in NW 10 mph 10 mph 54% 0 in 891 W/m2
14:37 76.6 °F 58.3 °F 29.8 in West 2.9 mph 6 mph 53% 0 in 193 W/m2
14:42 76.8 °F 59 °F 29.8 in NW 2.9 mph 8 mph 54% 0 in 958 W/m2
14:47 76.8 °F 59.4 °F 29.8 in NW 2.9 mph 8 mph 55% 0 in 884 W/m2
14:52 77 °F 60.1 °F 29.8 in NE 2 mph 7 mph 56% 0 in 882 W/m2
14:57 76.8 °F 58.5 °F 29.8 in West 4 mph 8 mph 53% 0 in 886 W/m2
15:02 77.2 °F 58.6 °F 29.8 in NW 10.1 mph 14 mph 53% 0 in 896 W/m2
15:07 76.5 °F 58.6 °F 29.8 in NNW 2 mph 8 mph 54% 0 in 751 W/m2
15:13 76.6 °F 58.3 °F 29.8 in WSW 2 mph 14 mph 53% 0 in 853 W/m2
15:18 76.8 °F 58.5 °F 29.8 in NNE 2 mph 4 mph 53% 0 in 169 W/m2
15:23 76.5 °F 58.6 °F 29.8 in West 2.9 mph 9 mph 54% 0 in 192 W/m2
15:28 76.3 °F 59.4 °F 29.8 in WNW 8.9 mph 9 mph 56% 0 in 889 W/m2
15:33 76.6 °F 59.7 °F 29.8 in West 8.9 mph 10 mph 56% 0 in 874 W/m2
15:38 76.6 °F 59.2 °F 29.8 in West 2.9 mph 8 mph 55% 0 in 758 W/m2
15:54 77.4 °F 58.8 °F 29.8 in SSE 4 mph 4 mph 53% 0 in 847 W/m2
15:59 77.5 °F 57.9 °F 29.8 in NNE 4 mph 10 mph 51% 0 in 796 W/m2
16:04 77.7 °F 57 °F 29.8 in West 6 mph 10 mph 49% 0 in 867 W/m2
16:09 77.4 °F 57.7 °F 29.8 in ESE 6 mph 6 mph 51% 0 in 279 W/m2
16:14 77.4 °F 56.1 °F 29.8 in ENE 2.9 mph 6 mph 48% 0 in 425 W/m2
16:19 77.5 °F 56.3 °F 29.8 in West 8.1 mph 12 mph 48% 0 in 448 W/m2
16:24 77.2 °F 57 °F 29.8 in WNW 4 mph 7 mph 50% 0 in 288 W/m2
16:29 76.5 °F 57 °F 29.8 in WSW 2 mph 12 mph 51% 0 in 229 W/m2
16:34 75.9 °F 57 °F 29.8 in West 6 mph 11 mph 52% 0 in 207 W/m2
16:39 75.4 °F 57 °F 29.8 in West 6 mph 10 mph 53% 0 in 195 W/m2
16:44 75 °F 57.7 °F 29.8 in West 8.9 mph 9 mph 55% 0 in 248 W/m2
16:49 74.8 °F 58.6 °F 29.8 in NW 2.9 mph 6 mph 57% 0 in 278 W/m2
16:54 74.8 °F 59 °F 29.8 in SW 4 mph 7 mph 58% 0 in 262 W/m2
16:59 74.8 °F 59.5 °F 29.8 in WSW 2 mph 7 mph 59% 0 in 250 W/m2
17:04 74.8 °F 59 °F 29.8 in NNW 4 mph 9 mph 58% 0 in 250 W/m2
17:09 74.7 °F 58.8 °F 29.8 in SW 4.9 mph 10 mph 58% 0 in 246 W/m2
17:14 74.5 °F 58.8 °F 29.8 in West 2.9 mph 12 mph 58% 0 in 276 W/m2
17:19 74.3 °F 59 °F 29.8 in NW 4.9 mph 8 mph 59% 0 in 269 W/m2
17:24 74.5 °F 59.2 °F 29.8 in WNW 2.9 mph 6 mph 59% 0 in 315 W/m2
17:29 74.7 °F 58.8 °F 29.8 in West 2 mph 5 mph 58% 0 in 274 W/m2
17:34 74.7 °F 59.4 °F 29.8 in NW 2.9 mph 4 mph 59% 0 in 294 W/m2
17:39 74.5 °F 58.8 °F 29.8 in NW 4 mph 10 mph 58% 0 in 199 W/m2
17:44 74.1 °F 58.8 °F 29.8 in West 6.9 mph 7 mph 59% 0 in 200 W/m2
18:04 74.7 °F 59.4 °F 29.8 in WNW 4 mph 6 mph 59% 0 in 239 W/m2
18:09 75 °F 59.7 °F 29.8 in West 6 mph 11 mph 59% 0 in 243 W/m2
18:14 75.2 °F 59.4 °F 29.8 in West 6.9 mph 11 mph 58% 0 in 373 W/m2
18:19 74.8 °F 59 °F 29.8 in NW 4 mph 9 mph 58% 0 in 120 W/m2
18:24 74.1 °F 58.8 °F 29.8 in WNW 4.9 mph 10 mph 59% 0 in 118 W/m2
18:29 73.8 °F 59.5 °F 29.8 in WNW 4 mph 6 mph 61% 0 in 137 W/m2
18:34 73.9 °F 59.2 °F 29.8 in NNW 4 mph 5 mph 60% 0 in 436 W/m2
18:39 74.1 °F 59.7 °F 29.8 in NW 8.9 mph 9 mph 61% 0 in 90 W/m2
18:44 73.9 °F 59.2 °F 29.8 in NNW 0.9 mph 8 mph 60% 0 in 107 W/m2
18:49 73.9 °F 59.7 °F 29.8 in West 2.9 mph 7 mph 61% 0 in 116 W/m2
18:54 73.6 °F 59.7 °F 29.8 in NNW 4 mph 10 mph 62% 0 in 83 W/m2
18:59 73.2 °F 59.4 °F 29.8 in SW 4 mph 8 mph 62% 0 in 97 W/m2
19:15 73.6 °F 59.7 °F 29.8 in NW 2.9 mph 6 mph 62% 0 in 269 W/m2
19:20 73.9 °F 60.1 °F 29.8 in West 2.9 mph 4 mph 62% 0 in 204 W/m2
19:25 74.3 °F 59.9 °F 29.8 in North 0.9 mph 6 mph 61% 0 in 192 W/m2
19:30 74.3 °F 59.9 °F 29.8 in SW 2.9 mph 8 mph 61% 0 in 35 W/m2
19:35 73.2 °F 59.4 °F 29.8 in WNW 4.9 mph 9 mph 62% 0 in 49 W/m2
19:40 73 °F 59.7 °F 29.8 in NNW 2 mph 5 mph 63% 0 in 220 W/m2
19:46 72.9 °F 59.5 °F 29.8 in NW 0.9 mph 9 mph 63% 0 in 54 W/m2
19:51 72.9 °F 59 °F 29.8 in NNW 0.9 mph 9 mph 62% 0 in 197 W/m2
19:56 72.9 °F 59 °F 29.8 in SSW 2.9 mph 6 mph 62% 0 in 169 W/m2
20:01 73 °F 58.8 °F 29.8 in WNW 0.9 mph 6 mph 61% 0 in 142 W/m2
20:06 73 °F 58.8 °F 29.8 in West 0.9 mph 5 mph 61% 0 in 95 W/m2
20:11 72.7 °F 58.8 °F 29.8 in NW 2 mph 4 mph 62% 0 in 23 W/m2
20:16 72.3 °F 59 °F 29.8 in NW 2.9 mph 3 mph 63% 0 in 19 W/m2
20:21 71.8 °F 59 °F 29.8 in WNW 0.9 mph 2 mph 64% 0 in 19 W/m2
20:26 71.2 °F 58.5 °F 29.8 in NW 2.9 mph 10 mph 64% 0 in 21 W/m2
20:31 71.1 °F 58.6 °F 29.8 in WNW 2 mph 3 mph 65% 0 in 51 W/m2
20:36 70.9 °F 58.1 °F 29.8 in NW 2 mph 6 mph 64% 0 in 28 W/m2
20:41 70.3 °F 58.1 °F 29.8 in WNW 2 mph 2 mph 65% 0 in 21 W/m2
20:46 70.2 °F 57.9 °F 29.8 in Calm   3 mph 65% 0 in 21 W/m2
20:51 70 °F 58.1 °F 29.8 in WSW 0.9 mph 3 mph 66% 0 in 18 W/m2
20:56 69.8 °F 57.9 °F 29.8 in WNW 2 mph 3 mph 66% 0 in 12 W/m2
21:01 69.6 °F 57.7 °F 29.8 in NW 0.9 mph 1 mph 66% 0 in 11 W/m2
21:18 68.4 °F 57 °F 29.8 in WNW 0.9 mph 7 mph 67% 0 in 5 W/m2
21:23 67.8 °F 56.5 °F 29.8 in West 2 mph 5 mph 67% 0 in 0 W/m2
21:28 67.6 °F 55 °F 29.8 in WSW 2 mph 7 mph 64% 0 in 0 W/m2
21:33 67.5 °F 54.9 °F 29.8 in SW 0.9 mph 7 mph 64% 0 in 0 W/m2
21:38 67.3 °F 54.3 °F 29.8 in WSW 2 mph 6 mph 63% 0 in 0 W/m2
21:43 66.9 °F 54 °F 29.8 in WSW 2 mph 4 mph 63% 0 in 0 W/m2
21:48 66.9 °F 54 °F 29.8 in West 2 mph 4 mph 63% 0 in 0 W/m2
21:53 66.7 °F 54.1 °F 29.8 in Calm   1 mph 64% 0 in 0 W/m2
21:58 66.4 °F 53.8 °F 29.8 in Calm   2 mph 64% 0 in 0 W/m2
22:03 66 °F 54 °F 29.8 in Calm   2 mph 65% 0 in 0 W/m2
22:08 65.8 °F 54.5 °F 29.8 in Calm   1 mph 67% 0 in 0 W/m2
22:13 65.5 °F 54.3 °F 29.8 in West 0.9 mph 1 mph 67% 0 in 0 W/m2
22:18 64.9 °F 54.1 °F 29.8 in Calm   1 mph 68% 0 in 0 W/m2
22:23 64.2 °F 53.8 °F 29.8 in Calm   2 mph 69% 0 in 0 W/m2
22:28 64 °F 54.1 °F 29.8 in Calm   1 mph 70% 0 in 0 W/m2
22:33 63.7 °F 54.1 °F 29.8 in Calm   2 mph 71% 0 in 0 W/m2
22:50 62.8 °F 53.6 °F 29.8 in Calm   1 mph 72% 0 in 0 W/m2
22:55 62.4 °F 52.9 °F 29.8 in Calm   1 mph 71% 0 in 0 W/m2
23:00 62.4 °F 53.2 °F 29.8 in WNW 0.9 mph 1 mph 72% 0 in 0 W/m2
23:05 62.2 °F 53.4 °F 29.8 in Calm   1 mph 73% 0 in 0 W/m2
23:23 61.9 °F 52.7 °F 29.8 in Calm   1 mph 72% 0 in 0 W/m2
23:28 61.9 °F 52.7 °F 29.8 in East 0.9 mph 1 mph 72% 0 in 0 W/m2
23:33 62.1 °F 52.9 °F 29.8 in East 0.9 mph 2 mph 72% 0 in 0 W/m2
23:38 62.1 °F 52.9 °F 29.8 in ESE 2 mph 3 mph 72% 0 in 0 W/m2
23:43 62.1 °F 52.9 °F 29.8 in SE 2 mph 2 mph 72% 0 in 0 W/m2
23:48 62.2 °F 52.7 °F 29.8 in Calm   2 mph 71% 0 in 0 W/m2
23:53 62.4 °F 52.5 °F 29.8 in Calm   2 mph 70% 0 in 0 W/m2
23:58 62.4 °F 52.5 °F 29.8 in Calm   1 mph 70% 0 in 0 W/m2
Juneau County Weather
Compliments of Weather Underground - 4 mb